Wetterverlauf

Letzte Wetterlage 23.07.2014 10:47
Wetterdiagramm
Tabellarische Darstellung
Datum Temperatur Windchill Feuchte Luftdruck Windrichtung Windstärke Niederschlag
23.07.2014 11:07 23,5 °C 23,5 °C 41 % 1021,6 hPa 0.0 0,00 mm
23.07.2014 10:57 23,3 °C 23,3 °C 43 % 1021,7 hPa 0.0 0,00 mm
23.07.2014 10:47 23,1 °C 23,1 °C 44 % 1021,7 hPa 0.0 0,00 mm
23.07.2014 10:37 23,0 °C 23,0 °C 44 % 1021,7 hPa 0.0 0,00 mm
23.07.2014 10:27 22,7 °C 22,7 °C 45 % 1021,7 hPa 0.0 0,00 mm
23.07.2014 10:17 22,5 °C 22,5 °C 45 % 1021,7 hPa 0.0 0,00 mm
23.07.2014 10:07 22,2 °C 22,2 °C 46 % 1021,8 hPa 0.0 0,00 mm
23.07.2014 09:57 22,1 °C 22,1 °C 46 % 1021,9 hPa 0.0 0,00 mm
23.07.2014 09:47 21,9 °C 21,9 °C 46 % 1021,9 hPa 0.0 0,00 mm
23.07.2014 09:37 21,7 °C 21,7 °C 49 % 1022,0 hPa 0.0 0,00 mm
23.07.2014 09:27 21,4 °C 21,4 °C 49 % 1022,0 hPa 0.0 0,00 mm
23.07.2014 09:17 21,1 °C 21,1 °C 50 % 1022,0 hPa 0.0 0,00 mm
23.07.2014 09:07 20,9 °C 20,9 °C 52 % 1022,0 hPa 0.0 0,00 mm
23.07.2014 08:57 20,6 °C 20,6 °C 52 % 1022,1 hPa 0.0 0,00 mm
23.07.2014 08:47 20,4 °C 20,4 °C 55 % 1022,1 hPa 0.0 0,00 mm
23.07.2014 08:37 20,1 °C 20,1 °C 56 % 1022,1 hPa 0.0 0,00 mm
23.07.2014 08:27 19,8 °C 19,8 °C 59 % 1022,1 hPa 0.0 0,00 mm
23.07.2014 08:17 19,6 °C 19,6 °C 61 % 1022,1 hPa 0.0 0,00 mm
23.07.2014 08:07 19,4 °C 19,4 °C 64 % 1022,1 hPa 0.0 0,00 mm
23.07.2014 07:57 19,1 °C 19,1 °C 65 % 1022,1 hPa 0.0 0,00 mm
23.07.2014 07:47 18,8 °C 18,8 °C 67 % 1022,1 hPa 0.0 0,00 mm
23.07.2014 07:37 18,6 °C 18,6 °C 70 % 1022,0 hPa 0.0 0,00 mm
23.07.2014 07:27 18,3 °C 18,3 °C 73 % 1022,0 hPa 0.0 0,00 mm
23.07.2014 07:17 18,0 °C 18,0 °C 76 % 1022,0 hPa 0.0 0,00 mm
23.07.2014 07:07 17,8 °C 17,8 °C 79 % 1022,0 hPa 0.0 0,00 mm
Empfehlen Sie wetter.com
| Mehr
Neue Wetterwarnung

Neue Niederschlagsmeldung
Neue Meldung
Regen Liveticker
    sehr starker Regen/Gewitter
    starker Regen/Gewitter
    mäßiger bis starker Regen
    mäßiger Regen
    leichter bis mäßiger Regen
    kein Regen